createdAt,value
2023-03-19T00:02:17.476Z,10.10
2023-03-19T00:07:20.962Z,11.65
2023-03-19T00:12:23.938Z,12.35
2023-03-19T00:17:27.162Z,9.85
2023-03-19T00:22:29.920Z,9.10
2023-03-19T00:27:32.635Z,9.02
2023-03-19T00:32:37.028Z,7.50
2023-03-19T00:37:40.432Z,7.97
2023-03-19T00:42:45.166Z,6.93
2023-03-19T00:47:47.967Z,8.43
2023-03-19T00:52:50.819Z,8.48
2023-03-19T00:57:53.628Z,10.40
2023-03-19T01:02:56.518Z,6.82
2023-03-19T01:07:59.287Z,7.45
2023-03-19T01:13:02.545Z,8.85
2023-03-19T01:18:05.870Z,8.43
2023-03-19T01:23:09.130Z,11.10
2023-03-19T01:28:12.268Z,9.02
2023-03-19T01:33:16.453Z,6.33
2023-03-19T01:38:39.701Z,11.15
2023-03-19T01:43:50.576Z,9.52
2023-03-19T01:49:20.288Z,10.57
2023-03-19T01:54:36.567Z,8.88
2023-03-19T02:00:02.800Z,10.70
2023-03-19T02:05:26.154Z,8.93
2023-03-19T02:10:34.501Z,11.70
2023-03-19T02:15:38.430Z,11.40
2023-03-19T02:20:41.329Z,15.45
2023-03-19T02:25:45.236Z,12.40
2023-03-19T02:30:49.125Z,10.85
2023-03-19T02:35:53.136Z,11.93
2023-03-19T02:41:02.000Z,11.13
2023-03-19T02:46:07.068Z,8.48
2023-03-19T02:51:09.985Z,10.18
2023-03-19T02:56:12.884Z,9.95
2023-03-19T03:01:16.212Z,11.40
2023-03-19T03:06:19.118Z,11.27
2023-03-19T03:11:23.183Z,9.25
2023-03-19T03:16:26.438Z,8.60
2023-03-19T03:21:29.951Z,10.88
2023-03-19T03:26:32.919Z,9.75
2023-03-19T03:31:35.830Z,3.33
2023-03-19T03:36:39.052Z,4.53
2023-03-19T03:41:42.786Z,6.40
2023-03-19T03:46:45.577Z,7.35
2023-03-19T03:51:48.432Z,7.13
2023-03-19T03:56:51.634Z,3.60
2023-03-19T04:01:54.353Z,4.53
2023-03-19T04:06:57.158Z,2.70
2023-03-19T04:12:11.804Z,5.18
2023-03-19T04:17:14.537Z,6.80
2023-03-19T04:22:17.392Z,6.03
2023-03-19T04:27:20.495Z,6.93
2023-03-19T04:32:23.540Z,3.50
2023-03-19T04:37:26.458Z,6.03
2023-03-19T04:42:29.407Z,9.63
2023-03-19T04:47:46.053Z,6.78
2023-03-19T04:52:50.035Z,3.45
2023-03-19T04:57:52.971Z,3.88
2023-03-19T05:02:58.892Z,2.10
2023-03-19T05:08:03.855Z,6.13
2023-03-19T05:13:08.087Z,4.95
2023-03-19T05:18:15.925Z,5.55
2023-03-19T05:28:33.165Z,4.50
2023-03-19T05:33:38.260Z,4.03
2023-03-19T05:38:42.053Z,5.00
2023-03-19T05:43:51.893Z,5.85
2023-03-19T05:49:10.603Z,2.90
2023-03-19T05:54:13.588Z,3.45
2023-03-19T05:59:32.325Z,4.40
2023-03-19T06:05:11.501Z,5.80
2023-03-19T06:10:14.995Z,3.83
2023-03-19T06:15:18.070Z,3.42
2023-03-19T06:20:20.793Z,5.88
2023-03-19T06:25:28.491Z,8.10
2023-03-19T06:30:33.913Z,4.72
2023-03-19T06:35:40.417Z,5.05
2023-03-19T06:40:43.370Z,3.15
2023-03-19T06:45:47.536Z,4.05
2023-03-19T06:50:50.844Z,3.13
2023-03-19T06:55:53.556Z,3.17
2023-03-19T07:01:00.727Z,3.00
2023-03-19T07:06:04.019Z,2.13
2023-03-19T07:11:13.294Z,4.40
2023-03-19T07:16:16.082Z,6.78
2023-03-19T07:21:21.476Z,3.83
2023-03-19T07:26:24.360Z,3.78
2023-03-19T07:31:28.617Z,4.03
2023-03-19T07:36:31.673Z,4.30
2023-03-19T07:41:38.130Z,3.42
2023-03-19T07:46:41.338Z,2.95
2023-03-19T07:51:44.065Z,5.50
2023-03-19T07:56:48.970Z,2.25
2023-03-19T08:01:54.663Z,3.47
2023-03-19T08:06:57.483Z,1.75
2023-03-19T08:12:00.253Z,2.60
2023-03-19T08:17:03.138Z,3.38
2023-03-19T08:22:06.306Z,5.07
2023-03-19T08:27:12.251Z,7.65
2023-03-19T08:32:14.962Z,1.92
2023-03-19T08:37:17.804Z,1.88
2023-03-19T08:42:21.632Z,5.50
2023-03-19T08:47:28.234Z,2.85
2023-03-19T08:52:31.817Z,4.72
2023-03-19T08:57:34.930Z,3.13
2023-03-19T09:02:40.040Z,5.03
2023-03-19T09:07:42.801Z,3.45
2023-03-19T09:12:46.766Z,4.28
2023-03-19T09:17:53.621Z,1.60
2023-03-19T09:22:56.668Z,2.35
2023-03-19T09:27:59.444Z,2.15
2023-03-19T09:33:02.295Z,5.03
2023-03-19T09:38:05.142Z,4.38
2023-03-19T09:43:22.228Z,3.03
2023-03-19T09:48:58.493Z,3.17
2023-03-19T09:54:23.750Z,3.30
2023-03-19T09:59:30.191Z,2.75
2023-03-19T10:04:43.072Z,1.77
2023-03-19T10:09:57.901Z,4.45
2023-03-19T10:15:36.005Z,3.78
2023-03-19T10:21:04.858Z,3.55
2023-03-19T10:26:12.506Z,2.13
2023-03-19T10:31:29.902Z,3.60
2023-03-19T10:36:36.607Z,5.85
2023-03-19T10:41:47.589Z,2.47
2023-03-19T10:46:50.601Z,3.33
2023-03-19T10:51:53.508Z,4.65
2023-03-19T10:57:00.693Z,4.78
2023-03-19T11:02:19.695Z,2.55
2023-03-19T11:07:22.932Z,3.67
2023-03-19T11:12:37.725Z,2.38
2023-03-19T11:17:47.252Z,4.95
2023-03-19T11:22:52.951Z,1.42
2023-03-19T11:28:04.804Z,3.60
2023-03-19T11:33:52.496Z,3.47
2023-03-19T11:39:23.031Z,3.22
2023-03-19T11:44:53.224Z,3.90
2023-03-19T11:50:22.619Z,2.83
2023-03-19T11:55:42.616Z,5.18
2023-03-19T12:00:51.779Z,3.40
2023-03-19T12:06:07.455Z,2.20
2023-03-19T12:11:13.316Z,4.07
2023-03-19T12:16:46.761Z,4.03
2023-03-19T12:22:27.834Z,4.45
2023-03-19T12:27:54.117Z,2.78
2023-03-19T12:33:18.076Z,3.03
2023-03-19T12:38:37.341Z,3.97
2023-03-19T12:44:00.959Z,2.90
2023-03-19T12:49:25.630Z,1.33
2023-03-19T12:54:32.001Z,3.33
2023-03-19T13:00:02.228Z,3.53
2023-03-19T13:05:15.354Z,2.88
2023-03-19T13:10:23.320Z,4.45
2023-03-19T13:15:31.771Z,2.45
2023-03-19T13:20:46.011Z,2.60
2023-03-19T13:25:49.732Z,2.70
2023-03-19T13:36:05.597Z,2.80
2023-03-19T13:41:39.509Z,4.50
2023-03-19T13:46:45.464Z,3.78
2023-03-19T13:51:51.039Z,1.35
2023-03-19T13:57:01.564Z,1.27
2023-03-19T14:02:24.663Z,3.05
2023-03-19T14:07:40.732Z,2.58
2023-03-19T14:12:44.630Z,3.88
2023-03-19T14:17:56.658Z,3.95
2023-03-19T14:23:23.334Z,2.60
2023-03-19T14:28:50.270Z,2.25
2023-03-19T14:33:59.104Z,3.47
2023-03-19T14:39:25.744Z,3.28
2023-03-19T14:44:54.560Z,3.67
2023-03-19T14:50:18.811Z,1.92
2023-03-19T14:55:21.574Z,2.65
2023-03-19T15:00:24.619Z,1.03
2023-03-19T15:05:33.638Z,1.67
2023-03-19T15:10:48.033Z,0.93
2023-03-19T15:16:03.734Z,3.63
2023-03-19T15:21:07.101Z,2.60
2023-03-19T15:26:12.072Z,2.75
2023-03-19T15:31:31.686Z,3.33
2023-03-19T15:36:39.435Z,1.35
2023-03-19T15:41:47.047Z,1.40
2023-03-19T15:46:50.278Z,1.73
2023-03-19T15:51:57.636Z,0.82
2023-03-19T15:57:00.678Z,2.95
2023-03-19T16:02:09.646Z,3.63
2023-03-19T16:07:24.401Z,2.38
2023-03-19T16:12:41.279Z,3.50
2023-03-19T16:17:44.432Z,1.38
2023-03-19T16:22:59.001Z,3.28
2023-03-19T16:28:01.993Z,2.42
2023-03-19T16:33:06.466Z,2.38
2023-03-19T16:38:17.865Z,2.63
2023-03-19T16:43:25.583Z,3.08
2023-03-19T16:48:28.333Z,3.05
2023-03-19T16:53:31.985Z,3.72
2023-03-19T16:58:42.922Z,6.07
2023-03-19T17:03:46.716Z,8.02
2023-03-19T17:08:50.093Z,2.28
2023-03-19T17:13:53.858Z,4.05
2023-03-19T17:18:57.304Z,2.83
2023-03-19T17:24:15.394Z,2.75
2023-03-19T17:29:21.096Z,2.78
2023-03-19T17:34:26.670Z,1.65
2023-03-19T17:39:33.251Z,5.07
2023-03-19T17:44:36.014Z,3.50
2023-03-19T17:49:40.529Z,4.15
2023-03-19T17:54:43.680Z,2.55
2023-03-19T18:04:51.309Z,1.98
2023-03-19T18:09:55.389Z,1.15
2023-03-19T18:14:59.388Z,2.95
2023-03-19T18:20:02.254Z,1.63
2023-03-19T18:25:06.512Z,2.25
2023-03-19T18:30:12.357Z,2.45
2023-03-19T18:35:17.235Z,1.75
2023-03-19T18:40:23.263Z,4.00
2023-03-19T18:45:30.951Z,2.55
2023-03-19T18:50:33.891Z,1.58
2023-03-19T19:00:39.345Z,2.70
2023-03-19T19:05:42.677Z,3.88
2023-03-19T19:10:54.524Z,4.00
2023-03-19T19:15:57.362Z,0.65
2023-03-19T19:21:02.289Z,1.40
2023-03-19T19:26:05.842Z,1.92
2023-03-19T19:31:24.187Z,4.05
2023-03-19T19:36:28.505Z,4.65
2023-03-19T19:41:34.233Z,2.75
2023-03-19T19:46:37.080Z,5.55
2023-03-19T19:51:39.939Z,3.10
2023-03-19T19:56:42.701Z,1.95
2023-03-19T20:01:45.657Z,3.17
2023-03-19T20:06:48.415Z,5.32
2023-03-19T20:11:51.394Z,7.63
2023-03-19T20:21:56.747Z,7.68
2023-03-19T20:27:01.111Z,10.00
2023-03-19T20:32:03.979Z,12.48
2023-03-19T20:37:06.798Z,22.70
2023-03-19T20:42:16.089Z,20.75
2023-03-19T20:47:25.930Z,5.65
2023-03-19T20:52:33.098Z,6.97
2023-03-19T20:57:37.277Z,6.07
2023-03-19T21:02:40.071Z,5.15
2023-03-19T21:07:45.244Z,6.22
2023-03-19T21:12:48.008Z,4.75
2023-03-19T21:17:51.140Z,5.13
2023-03-19T21:23:14.036Z,5.03
2023-03-19T21:28:24.851Z,7.40
2023-03-19T21:33:31.125Z,5.72
2023-03-19T21:38:34.115Z,4.50
2023-03-19T21:43:41.140Z,6.18
2023-03-19T21:48:44.260Z,5.90
2023-03-19T21:53:47.966Z,3.20
2023-03-19T21:58:52.566Z,5.40
2023-03-19T22:03:57.256Z,5.15
2023-03-19T22:09:00.563Z,9.50
2023-03-19T22:14:16.487Z,9.32
2023-03-19T22:19:19.611Z,12.80
2023-03-19T22:24:22.315Z,6.13
2023-03-19T22:29:27.811Z,5.90
2023-03-19T22:34:30.596Z,5.30
2023-03-19T22:39:33.447Z,5.38
2023-03-19T22:44:36.218Z,5.30
2023-03-19T22:49:38.925Z,5.60
2023-03-19T22:54:41.995Z,5.18
2023-03-19T23:09:50.778Z,5.40
2023-03-19T23:14:54.123Z,4.03
2023-03-19T23:19:56.918Z,5.72
2023-03-19T23:24:59.687Z,3.97
2023-03-19T23:30:03.165Z,6.40
2023-03-19T23:35:16.394Z,7.10
2023-03-19T23:40:19.970Z,7.43
2023-03-19T23:45:32.086Z,5.47
2023-03-19T23:50:37.059Z,5.35
2023-03-19T23:55:39.887Z,8.23
